Time;durP1;ratioP1;P1;durP2;ratioP2;P2;SDS_P1;SDS_P2;PMS_P1;PMS_P2;Temp;Humidity;BMP_temperature;BMP_pressure;BME280_temperature;BME280_humidity;BME280_pressure;Samples;Min_cycle;Max_cycle;Signal;HPM_P1;HPM_P2
2022/05/27 00:01:54;;;;;;;0.30;0.30;;;;;;;;;;6138635;23;20078;-92
2022/05/27 00:04:20;;;;;;;0.20;0.20;;;;;;;;;;6138676;23;20282;-91
2022/05/27 00:06:47;;;;;;;0.20;0.20;;;;;;;;;;6138170;23;20005;-91
2022/05/27 00:09:13;;;;;;;0.10;0.10;;;;;;;;;;6162744;23;20421;-92
2022/05/27 00:11:39;;;;;;;0.10;0.10;;;;;;;;;;6162677;23;20016;-93
2022/05/27 00:14:05;;;;;;;0.30;0.30;;;;;;;;;;6138621;23;20024;-93
2022/05/27 00:16:31;;;;;;;0.10;0.10;;;;;;;;;;6138376;23;20017;-93
2022/05/27 00:18:58;;;;;;;0.20;0.20;;;;;;;;;;6162787;23;20016;-92
2022/05/27 00:21:24;;;;;;;0.10;0.10;;;;;;;;;;6163232;23;20075;-92
2022/05/27 00:23:50;;;;;;;0.10;0.10;;;;;;;;;;6162701;23;20051;-91
2022/05/27 00:26:16;;;;;;;0.20;0.20;;;;;;;;;;6138460;23;20005;-91
2022/05/27 00:28:42;;;;;;;0.10;0.10;;;;;;;;;;6138292;23;20012;-90
2022/05/27 00:31:09;;;;;;;0.10;0.10;;;;;;;;;;6138274;23;20020;-88
2022/05/27 00:33:35;;;;;;;0.10;0.10;;;;;;;;;;6162570;23;20025;-89
2022/05/27 00:36:01;;;;;;;0.10;0.10;;;;;;;;;;6138279;23;20025;-90
2022/05/27 00:38:27;;;;;;;0.10;0.10;;;;;;;;;;6138230;23;20095;-90
2022/05/27 00:40:53;;;;;;;0.10;0.10;;;;;;;;;;6138266;23;20036;-90
2022/05/27 00:43:19;;;;;;;0.10;0.10;;;;;;;;;;6138073;23;20020;-89
2022/05/27 00:45:46;;;;;;;0.10;0.10;;;;;;;;;;6138240;23;20012;-88
2022/05/27 00:48:15;;;;;;;0.20;0.20;;;;;;;;;;6163820;23;20019;-89
2022/05/27 00:50:42;;;;;;;0.10;0.10;;;;;;;;;;6139795;23;20508;-90
2022/05/27 00:53:08;;;;;;;0.15;0.15;;;;;;;;;;6139937;23;20049;-90
2022/05/27 00:55:36;;;;;;;0.25;0.25;;;;;;;;;;6164812;23;20024;-89
2022/05/27 00:58:06;;;;;;;0.10;0.10;;;;;;;;;;6164452;23;20434;-89
2022/05/27 01:00:32;;;;;;;0.10;0.10;;;;;;;;;;6139951;23;20012;-90
2022/05/27 01:02:58;;;;;;;0.20;0.20;;;;;;;;;;6164355;23;20047;-89
2022/05/27 01:05:25;;;;;;;0.17;0.17;;;;;;;;;;6139940;23;20020;-90
2022/05/27 01:07:52;;;;;;;0.10;0.10;;;;;;;;;;6164638;23;20055;-90
2022/05/27 01:10:18;;;;;;;0.10;0.10;;;;;;;;;;6163977;23;20019;-90
2022/05/27 01:12:44;;;;;;;0.10;0.10;;;;;;;;;;6139935;23;20012;-89
2022/05/27 01:15:22;;;;;;;0.10;0.10;;;;;;;;;;6163829;23;20031;-90
2022/05/27 01:18:07;;;;;;;0.20;0.20;;;;;;;;;;6189094;23;20012;-91
2022/05/27 01:20:45;;;;;;;0.10;0.10;;;;;;;;;;6164549;23;20095;-91
2022/05/27 01:23:20;;;;;;;0.20;0.20;;;;;;;;;;6139764;23;20091;-91
2022/05/27 01:25:49;;;;;;;0.10;0.10;;;;;;;;;;6164117;23;20009;-92
2022/05/27 01:28:22;;;;;;;0.10;0.10;;;;;;;;;;6164286;23;20009;-92
2022/05/27 01:30:55;;;;;;;0.10;0.10;;;;;;;;;;6188889;23;20043;-93
2022/05/27 01:33:26;;;;;;;0.10;0.10;;;;;;;;;;6134231;23;20021;-91
2022/05/27 01:35:56;;;;;;;0.20;0.20;;;;;;;;;;6158636;23;20063;-91
2022/05/27 01:38:39;;;;;;;0.10;0.10;;;;;;;;;;6183785;23;20024;-91
2022/05/27 01:41:24;;;;;;;0.10;0.10;;;;;;;;;;6134325;23;20016;-93
2022/05/27 01:43:56;;;;;;;0.10;0.10;;;;;;;;;;6134377;23;20013;-92
2022/05/27 01:46:36;;;;;;;0.10;0.10;;;;;;;;;;6134843;23;20009;-94
2022/05/27 01:49:02;;;;;;;0.10;0.10;;;;;;;;;;6134909;23;20531;-94
2022/05/27 01:51:45;;;;;;;0.20;0.20;;;;;;;;;;6159493;23;20121;-92
2022/05/27 01:54:11;;;;;;;;;;;;;;;;;;6159329;23;20021;-92
2022/05/27 01:56:37;;;;;;;0.10;0.10;;;;;;;;;;6158717;23;19988;-92
2022/05/27 01:59:07;;;;;;;0.10;0.10;;;;;;;;;;6183009;23;20013;-92
2022/05/27 02:01:35;;;;;;;0.10;0.10;;;;;;;;;;6134353;23;20009;-91
2022/05/27 02:04:24;;;;;;;0.10;0.10;;;;;;;;;;6134356;23;20017;-92
2022/05/27 02:06:52;;;;;;;0.40;0.40;;;;;;;;;;6148078;23;20021;-93
2022/05/27 02:09:23;;;;;;;0.10;0.10;;;;;;;;;;6134489;23;20035;-93
2022/05/27 02:11:49;;;;;;;0.10;0.10;;;;;;;;;;6134984;23;20501;-93
2022/05/27 02:14:20;;;;;;;0.10;0.10;;;;;;;;;;6135436;23;20099;-90
2022/05/27 02:16:51;;;;;;;0.10;0.10;;;;;;;;;;6159004;23;20466;-93
2022/05/27 02:19:26;;;;;;;0.10;0.10;;;;;;;;;;6159532;23;20331;-93
2022/05/27 02:21:54;;;;;;;0.10;0.10;;;;;;;;;;6159194;23;20422;-93
2022/05/27 02:24:23;;;;;;;0.10;0.10;;;;;;;;;;6134283;23;20438;-93
2022/05/27 02:26:50;;;;;;;0.10;0.10;;;;;;;;;;6134307;23;20426;-95
2022/05/27 02:29:23;;;;;;;0.10;0.10;;;;;;;;;;6134914;23;20497;-94
2022/05/27 02:31:49;;;;;;;;;;;;;;;;;;6135109;23;20021;-95
2022/05/27 02:37:13;;;;;;;0.10;0.10;;;;;;;;;;6163360;23;20099;-92
2022/05/27 02:39:39;;;;;;;0.10;0.10;;;;;;;;;;6134089;23;20013;-92
2022/05/27 02:42:18;;;;;;;0.10;0.10;;;;;;;;;;6158969;23;20065;-92
2022/05/27 02:44:47;;;;;;;0.10;0.10;;;;;;;;;;6134472;23;20088;-92
2022/05/27 02:47:23;;;;;;;0.10;0.10;;;;;;;;;;6183200;23;20013;-94
2022/05/27 02:49:52;;;;;;;0.10;0.10;;;;;;;;;;6134252;23;20013;-92
2022/05/27 02:52:35;;;;;;;0.10;0.10;;;;;;;;;;6158283;23;20019;-93
2022/05/27 02:55:04;;;;;;;0.10;0.10;;;;;;;;;;6134564;23;20063;-94
2022/05/27 02:57:38;;;;;;;0.10;0.10;;;;;;;;;;6159402;23;20056;-93
2022/05/27 03:00:06;;;;;;;0.10;0.10;;;;;;;;;;6159070;23;20092;-94
2022/05/27 03:02:35;;;;;;;0.10;0.10;;;;;;;;;;6134527;23;20013;-94
2022/05/27 03:05:01;;;;;;;0.10;0.10;;;;;;;;;;6158983;23;20359;-95
2022/05/27 03:07:33;;;;;;;0.10;0.10;;;;;;;;;;6134606;23;20013;-94
2022/05/27 03:10:18;;;;;;;0.10;0.10;;;;;;;;;;6134946;23;20013;-95
2022/05/27 03:12:44;;;;;;;0.10;0.10;;;;;;;;;;6184113;23;20020;-94
2022/05/27 03:15:28;;;;;;;0.10;0.10;;;;;;;;;;6184154;23;20091;-95
2022/05/27 03:18:00;;;;;;;0.10;0.10;;;;;;;;;;6134737;23;20013;-95
2022/05/27 03:20:44;;;;;;;0.10;0.10;;;;;;;;;;6158777;23;20014;-93
2022/05/27 03:23:15;;;;;;;0.10;0.10;;;;;;;;;;6134234;23;20032;-94
2022/05/27 03:25:46;;;;;;;0.10;0.10;;;;;;;;;;6134073;23;20036;-95
2022/05/27 03:28:14;;;;;;;0.10;0.10;;;;;;;;;;6135338;23;20013;-91
2022/05/27 03:31:01;;;;;;;0.10;0.10;;;;;;;;;;6134581;23;20533;-93
2022/05/27 03:33:46;;;;;;;0.10;0.10;;;;;;;;;;6157574;23;20466;-93
2022/05/27 03:36:20;;;;;;;0.10;0.10;;;;;;;;;;6135012;23;20021;-94
2022/05/27 03:38:51;;;;;;;0.10;0.10;;;;;;;;;;6133805;23;20055;-93
2022/05/27 03:41:26;;;;;;;0.10;0.10;;;;;;;;;;6134023;23;20013;-93
2022/05/27 03:43:53;;;;;;;0.10;0.10;;;;;;;;;;6157703;23;20013;-93
2022/05/27 03:46:28;;;;;;;0.10;0.10;;;;;;;;;;6133765;23;20020;-93
2022/05/27 03:48:55;;;;;;;0.10;0.10;;;;;;;;;;6158069;23;20013;-92
2022/05/27 03:51:21;;;;;;;0.10;0.10;;;;;;;;;;6158359;23;20017;-94
2022/05/27 03:54:05;;;;;;;0.30;0.30;;;;;;;;;;6134384;23;20055;-92
2022/05/27 03:56:36;;;;;;;0.10;0.10;;;;;;;;;;6162305;23;20099;-93
2022/05/27 03:59:02;;;;;;;0.10;0.10;;;;;;;;;;6158368;23;20484;-93
2022/05/27 04:01:31;;;;;;;0.10;0.10;;;;;;;;;;6135133;23;20023;-93
2022/05/27 04:03:58;;;;;;;0.10;0.10;;;;;;;;;;6134036;23;20013;-93
2022/05/27 04:06:27;;;;;;;0.10;0.10;;;;;;;;;;6134421;23;20013;-94
2022/05/27 04:08:53;;;;;;;0.10;0.10;;;;;;;;;;6134635;23;20013;-94
2022/05/27 04:11:19;;;;;;;0.10;0.10;;;;;;;;;;6133842;23;20021;-93
2022/05/27 04:13:46;;;;;;;0.10;0.10;;;;;;;;;;6136620;23;20020;-93
2022/05/27 04:16:14;;;;;;;0.10;0.10;;;;;;;;;;6146044;23;20016;-94
2022/05/27 04:18:40;;;;;;;0.10;0.10;;;;;;;;;;6155131;23;20450;-95
2022/05/27 04:21:06;;;;;;;0.20;0.20;;;;;;;;;;6136562;23;20512;-95
2022/05/27 04:23:34;;;;;;;0.10;0.10;;;;;;;;;;6135780;23;20013;-93
2022/05/27 04:26:00;;;;;;;0.20;0.20;;;;;;;;;;6135956;23;20017;-93
2022/05/27 04:28:26;;;;;;;0.10;0.10;;;;;;;;;;6135420;23;20043;-92
2022/05/27 04:30:52;;;;;;;0.20;0.20;;;;;;;;;;6135252;23;20024;-93
2022/05/27 04:33:18;;;;;;;0.10;0.10;;;;;;;;;;6138791;23;20016;-92
2022/05/27 04:35:45;;;;;;;0.10;0.10;;;;;;;;;;6140088;23;20020;-91
2022/05/27 04:38:11;;;;;;;0.10;0.10;;;;;;;;;;6139971;23;20017;-92
2022/05/27 04:40:37;;;;;;;0.10;0.10;;;;;;;;;;6140300;23;20012;-92
2022/05/27 04:43:03;;;;;;;0.10;0.10;;;;;;;;;;6140166;23;20528;-92
2022/05/27 04:45:30;;;;;;;2.65;0.32;;;;;;;;;;6139577;23;20048;-92
2022/05/27 04:47:56;;;;;;;0.10;0.10;;;;;;;;;;6140359;23;20346;-92
2022/05/27 04:50:22;;;;;;;0.10;0.10;;;;;;;;;;6140341;23;20024;-92
2022/05/27 04:52:48;;;;;;;0.10;0.10;;;;;;;;;;6140312;23;20088;-93
2022/05/27 04:55:14;;;;;;;0.10;0.10;;;;;;;;;;6140014;23;20016;-93
2022/05/27 04:57:42;;;;;;;0.17;0.17;;;;;;;;;;6140169;23;20020;-93
2022/05/27 05:00:09;;;;;;;0.10;0.10;;;;;;;;;;6140106;23;20027;-93
2022/05/27 05:02:35;;;;;;;0.10;0.10;;;;;;;;;;6140081;23;20092;-94
2022/05/27 05:05:01;;;;;;;0.10;0.10;;;;;;;;;;6164799;23;20012;-91
2022/05/27 05:07:27;;;;;;;0.10;0.10;;;;;;;;;;6139845;23;20271;-91
2022/05/27 05:09:53;;;;;;;0.10;0.10;;;;;;;;;;6139872;23;20199;-91
2022/05/27 05:12:22;;;;;;;0.20;0.20;;;;;;;;;;6139803;23;20023;-91
2022/05/27 05:14:51;;;;;;;0.10;0.10;;;;;;;;;;6139966;23;20012;-91
2022/05/27 05:17:16;;;;;;;0.10;0.10;;;;;;;;;;6139820;23;20517;-91
2022/05/27 05:19:43;;;;;;;0.10;0.10;;;;;;;;;;6139982;23;20043;-92
2022/05/27 05:22:09;;;;;;;0.10;0.10;;;;;;;;;;6140070;23;20020;-91
2022/05/27 05:24:35;;;;;;;0.10;0.10;;;;;;;;;;6165008;23;20080;-91
2022/05/27 05:27:01;;;;;;;0.20;0.20;;;;;;;;;;6139944;23;20110;-93
2022/05/27 05:29:27;;;;;;;0.20;0.20;;;;;;;;;;6140534;23;20017;-93
2022/05/27 05:31:53;;;;;;;0.10;0.10;;;;;;;;;;6140751;23;20044;-92
2022/05/27 05:34:18;;;;;;;0.10;0.10;;;;;;;;;;6139707;23;20075;-92
2022/05/27 05:36:45;;;;;;;0.20;0.20;;;;;;;;;;6140006;23;20016;-93
2022/05/27 05:39:11;;;;;;;0.10;0.10;;;;;;;;;;6139831;23;20020;-92
2022/05/27 05:41:39;;;;;;;0.10;0.10;;;;;;;;;;6164445;23;20017;-93
2022/05/27 05:44:05;;;;;;;0.10;0.10;;;;;;;;;;6164563;23;20040;-92
2022/05/27 05:46:33;;;;;;;0.10;0.10;;;;;;;;;;6166485;23;20389;-96
2022/05/27 05:48:59;;;;;;;0.10;0.10;;;;;;;;;;6146524;23;20075;-94
2022/05/27 05:51:25;;;;;;;0.10;0.10;;;;;;;;;;6141641;23;20074;-96
2022/05/27 05:53:51;;;;;;;0.65;0.65;;;;;;;;;;6145978;23;20021;-96
2022/05/27 05:56:19;;;;;;;0.20;0.20;;;;;;;;;;6142984;23;20017;-94
2022/05/27 05:58:51;;;;;;;0.10;0.10;;;;;;;;;;6147733;23;20017;-96
2022/05/27 06:01:18;;;;;;;0.10;0.10;;;;;;;;;;6170344;23;20335;-96
2022/05/27 06:03:47;;;;;;;0.10;0.10;;;;;;;;;;6142356;23;20015;-92
2022/05/27 06:06:13;;;;;;;0.10;0.10;;;;;;;;;;6173108;23;20386;-95
2022/05/27 06:08:42;;;;;;;0.10;0.10;;;;;;;;;;6184434;22;20050;-94
2022/05/27 06:11:12;;;;;;;0.10;0.10;;;;;;;;;;6302460;22;20018;-94
2022/05/27 06:14:08;;;;;;;0.10;0.10;;;;;;;;;;6266565;22;20096;-95
2022/05/27 06:16:37;;;;;;;0.20;0.17;;;;;;;;;;6281800;22;20019;-93
2022/05/27 06:19:18;;;;;;;0.10;0.10;;;;;;;;;;6262300;22;20041;-95
2022/05/27 06:21:44;;;;;;;0.20;0.20;;;;;;;;;;6234306;22;20011;-95
2022/05/27 06:24:54;;;;;;;0.73;0.73;;;;;;;;;;6251383;22;20026;-96
2022/05/27 06:27:31;;;;;;;0.20;0.20;;;;;;;;;;6272561;22;20058;-92
2022/05/27 06:39:48;;;;;;;0.10;0.10;;;;;;;;;;6263987;22;20240;-94
2022/05/27 06:42:17;;;;;;;0.38;0.38;;;;;;;;;;6201297;22;20016;-96
2022/05/27 06:44:49;;;;;;;0.10;0.10;;;;;;;;;;6202619;22;20008;-94
2022/05/27 06:47:18;;;;;;;0.10;0.10;;;;;;;;;;6229862;22;20015;-94
2022/05/27 06:49:51;;;;;;;0.10;0.10;;;;;;;;;;6202338;22;20016;-96
2022/05/27 06:52:17;;;;;;;0.28;0.28;;;;;;;;;;6203034;22;20069;-93
2022/05/27 06:55:13;;;;;;;0.10;0.10;;;;;;;;;;6200020;22;20011;-96
2022/05/27 07:06:37;;;;;;;1.17;0.50;;;;;;;;;;6271003;22;20031;-94
2022/05/27 07:11:40;;;;;;;0.20;0.20;;;;;;;;;;6240127;22;20026;-93
2022/05/27 07:14:12;;;;;;;0.20;0.20;;;;;;;;;;6199077;22;20028;-94
2022/05/27 07:16:38;;;;;;;0.20;0.20;;;;;;;;;;6224234;22;20507;-93
2022/05/27 07:19:29;;;;;;;0.10;0.10;;;;;;;;;;6200036;22;20012;-95
2022/05/27 07:21:56;;;;;;;0.57;0.57;;;;;;;;;;6224223;22;20015;-95
2022/05/27 07:24:25;;;;;;;0.10;0.10;;;;;;;;;;6199163;22;20016;-92
2022/05/27 07:26:53;;;;;;;0.28;0.28;;;;;;;;;;6224718;22;20337;-91
2022/05/27 07:29:25;;;;;;;0.20;0.20;;;;;;;;;;6199309;22;20015;-96
2022/05/27 07:32:00;;;;;;;2.47;0.40;;;;;;;;;;6225039;23;20457;-89
2022/05/27 07:34:29;;;;;;;0.20;0.20;;;;;;;;;;6168460;23;20107;-95
2022/05/27 07:36:55;;;;;;;0.20;0.20;;;;;;;;;;6168297;23;20123;-93
2022/05/27 07:39:22;;;;;;;0.10;0.10;;;;;;;;;;6168601;23;20175;-94
2022/05/27 07:41:49;;;;;;;1.38;0.30;;;;;;;;;;6170637;23;20012;-92
2022/05/27 07:44:27;;;;;;;0.10;0.10;;;;;;;;;;6196547;23;20008;-94
2022/05/27 07:46:56;;;;;;;0.10;0.10;;;;;;;;;;6204020;23;20004;-95
2022/05/27 07:49:22;;;;;;;0.10;0.10;;;;;;;;;;6182629;23;20016;-94
2022/05/27 07:51:48;;;;;;;0.10;0.10;;;;;;;;;;6177591;23;20576;-94
2022/05/27 07:54:14;;;;;;;0.65;0.65;;;;;;;;;;6175194;23;20038;-95
2022/05/27 07:56:43;;;;;;;0.32;0.32;;;;;;;;;;6175350;23;20027;-95
2022/05/27 07:59:09;;;;;;;0.30;0.30;;;;;;;;;;6204402;23;20016;-92
2022/05/27 08:01:36;;;;;;;0.32;0.20;;;;;;;;;;6182461;22;20038;-94
2022/05/27 08:04:03;;;;;;;5.57;0.35;;;;;;;;;;6238713;22;20015;-90
2022/05/27 08:06:29;;;;;;;0.10;0.10;;;;;;;;;;6208792;22;20066;-90
2022/05/27 08:08:55;;;;;;;0.30;0.30;;;;;;;;;;6225392;22;20086;-93
2022/05/27 08:11:22;;;;;;;0.10;0.10;;;;;;;;;;6200580;22;20016;-92
2022/05/27 08:13:48;;;;;;;0.20;0.20;;;;;;;;;;6225680;22;20024;-92
2022/05/27 08:16:16;;;;;;;0.10;0.10;;;;;;;;;;6200412;22;20012;-93
2022/05/27 08:18:42;;;;;;;0.10;0.10;;;;;;;;;;6200822;22;20396;-93
2022/05/27 08:21:11;;;;;;;0.13;0.13;;;;;;;;;;6225434;22;20043;-94
2022/05/27 08:23:38;;;;;;;0.10;0.10;;;;;;;;;;6250589;22;20389;-90
2022/05/27 08:26:04;;;;;;;0.10;0.10;;;;;;;;;;6200392;22;20018;-92
2022/05/27 08:28:30;;;;;;;0.10;0.10;;;;;;;;;;6200645;22;20014;-92
2022/05/27 08:31:02;;;;;;;0.10;0.10;;;;;;;;;;6201271;22;20073;-95
2022/05/27 08:39:26;;;;;;;0.20;0.20;;;;;;;;;;6228456;22;20087;-92
2022/05/27 08:42:03;;;;;;;0.20;0.20;;;;;;;;;;6200178;22;20054;-91
2022/05/27 08:44:54;;;;;;;0.10;0.10;;;;;;;;;;6199750;22;20023;-91
2022/05/27 08:47:20;;;;;;;0.10;0.10;;;;;;;;;;6224911;22;20090;-90
2022/05/27 08:49:47;;;;;;;0.10;0.10;;;;;;;;;;6249847;22;20070;-92
2022/05/27 08:52:24;;;;;;;0.10;0.10;;;;;;;;;;6199357;22;20018;-91
2022/05/27 08:54:52;;;;;;;0.35;0.35;;;;;;;;;;6199479;22;20410;-90
2022/05/27 09:00:06;;;;;;;0.30;0.30;;;;;;;;;;6228627;22;20012;-92
2022/05/27 09:02:39;;;;;;;0.22;0.22;;;;;;;;;;6225672;22;20012;-93
2022/05/27 09:05:28;;;;;;;0.22;0.22;;;;;;;;;;6235333;22;20487;-95
2022/05/27 09:08:37;;;;;;;0.20;0.20;;;;;;;;;;6261301;22;20038;-94
2022/05/27 09:11:27;;;;;;;3.83;1.08;;;;;;;;;;6261328;22;20007;-96
2022/05/27 09:17:38;;;;;;;0.10;0.10;;;;;;;;;;6254918;22;20026;-96
2022/05/27 09:24:38;;;;;;;0.20;0.20;;;;;;;;;;6099690;23;20061;-89
2022/05/27 09:27:43;;;;;;;0.10;0.10;;;;;;;;;;6079530;23;20013;-96
2022/05/27 09:30:10;;;;;;;0.10;0.10;;;;;;;;;;6161089;23;20008;-94
2022/05/27 09:32:47;;;;;;;0.10;0.10;;;;;;;;;;6138812;23;20075;-92
2022/05/27 09:35:20;;;;;;;0.10;0.10;;;;;;;;;;6145569;23;20032;-96
2022/05/27 09:37:47;;;;;;;0.10;0.10;;;;;;;;;;6166804;23;20055;-93
2022/05/27 09:40:15;;;;;;;0.17;0.17;;;;;;;;;;6138511;23;20448;-90
2022/05/27 09:42:47;;;;;;;0.10;0.10;;;;;;;;;;6162420;23;20039;-90
2022/05/27 09:45:13;;;;;;;0.10;0.10;;;;;;;;;;6137971;23;20017;-90
2022/05/27 09:47:40;;;;;;;0.10;0.10;;;;;;;;;;6162449;23;20020;-91
2022/05/27 09:50:08;;;;;;;0.30;0.30;;;;;;;;;;6138665;23;20096;-88
2022/05/27 09:52:37;;;;;;;0.10;0.10;;;;;;;;;;6198369;22;20047;-94
2022/05/27 09:55:34;;;;;;;0.40;0.30;;;;;;;;;;6199443;22;20019;-95
2022/05/27 09:58:04;;;;;;;0.10;0.10;;;;;;;;;;6252254;22;20215;-96
2022/05/27 10:00:40;;;;;;;0.10;0.10;;;;;;;;;;6202177;22;20022;-91
2022/05/27 10:03:25;;;;;;;0.65;0.20;;;;;;;;;;6249175;22;20023;-94
2022/05/27 10:05:57;;;;;;;0.20;0.20;;;;;;;;;;6220940;22;20019;-93
2022/05/27 10:08:49;;;;;;;0.10;0.10;;;;;;;;;;6199491;22;20008;-92
2022/05/27 10:11:31;;;;;;;0.20;0.20;;;;;;;;;;6225086;22;20014;-93
2022/05/27 10:14:16;;;;;;;0.10;0.10;;;;;;;;;;6196364;23;20361;-96
2022/05/27 10:17:09;;;;;;;0.10;0.10;;;;;;;;;;6216392;23;20016;-93
2022/05/27 10:20:20;;;;;;;0.10;0.10;;;;;;;;;;6243840;23;20020;-92
2022/05/27 10:23:06;;;;;;;0.30;0.30;;;;;;;;;;6168937;23;20008;-93
2022/05/27 10:25:37;;;;;;;0.10;0.10;;;;;;;;;;6167434;23;20090;-93
2022/05/27 10:28:05;;;;;;;0.10;0.10;;;;;;;;;;6192265;23;20091;-93
2022/05/27 10:30:32;;;;;;;0.10;0.10;;;;;;;;;;6166340;23;20036;-91
2022/05/27 10:33:28;;;;;;;0.10;0.10;;;;;;;;;;6167189;23;20016;-88
2022/05/27 10:35:57;;;;;;;0.10;0.10;;;;;;;;;;6199991;23;20097;-93
2022/05/27 10:39:08;;;;;;;0.10;0.10;;;;;;;;;;6179517;23;20016;-96
2022/05/27 10:45:09;;;;;;;;;;;;;;;;;;6261895;23;20511;-96
2022/05/27 10:48:10;;;;;;;;;;;;;;;;;;;;;
2022/05/27 10:51:31;;;;;;;;;;;;;;;;;;;;;
2022/05/27 10:55:05;;;;;;;;;;;;;;;;;;;;;
2022/05/27 11:03:57;;;;;;;1.20;0.80;;;;;;;;;;6194272;23;20055;-95
2022/05/27 11:06:40;;;;;;;0.10;0.10;;;;;;;;;;6150244;23;20013;-95
2022/05/27 11:09:19;;;;;;;0.25;0.20;;;;;;;;;;6196132;23;20039;-95
2022/05/27 11:15:10;;;;;;;0.10;0.10;;;;;;;;;;6194198;22;20082;-96
2022/05/27 11:16:00;;;;;;;0.10;0.10;;;;;;;;;;6270870;22;20012;-94
2022/05/27 11:27:37;;;;;;;6.50;1.25;;;;;;;;;;6203954;22;20020;-95
2022/05/27 11:31:20;;;;;;;0.43;0.43;;;;;;;;;;6254884;23;20016;-95
2022/05/27 11:37:09;;;;;;;0.10;0.10;;;;;;;;;;6282304;22;19923;-95
2022/05/27 11:40:09;;;;;;;0.45;0.40;;;;;;;;;;6238752;22;20018;-96
2022/05/27 11:53:38;;;;;;;0.68;0.68;;;;;;;;;;6289639;22;20007;-95
2022/05/27 11:56:13;;;;;;;0.10;0.10;;;;;;;;;;6266819;22;20098;-95
2022/05/27 11:59:26;;;;;;;;;;;;;;;;;;;;;
2022/05/27 12:10:52;;;;;;;0.10;0.10;;;;;;;;;;6294783;22;20039;-96
2022/05/27 12:14:25;;;;;;;0.10;0.10;;;;;;;;;;6284636;22;20003;-96
2022/05/27 12:20:48;;;;;;;0.20;0.20;;;;;;;;;;6260398;22;20030;-95
2022/05/27 12:23:38;;;;;;;0.10;0.10;;;;;;;;;;6313775;22;20332;-96
2022/05/27 12:27:06;;;;;;;0.10;0.10;;;;;;;;;;6311478;22;20015;-95
2022/05/27 12:29:35;;;;;;;0.13;0.13;;;;;;;;;;6163762;23;20024;-96
2022/05/27 12:32:23;;;;;;;0.17;0.17;;;;;;;;;;6297298;22;20011;-95
2022/05/27 12:38:31;;;;;;;0.20;0.20;;;;;;;;;;6321122;22;20332;-95
2022/05/27 12:41:57;;;;;;;0.52;0.20;;;;;;;;;;6279234;22;20068;-96
2022/05/27 13:01:07;;;;;;;0.15;0.15;;;;;;;;;;6267738;23;20051;-96
2022/05/27 13:04:42;;;;;;;;;;;;;;;;;;;;;
2022/05/27 13:08:00;;;;;;;0.10;0.10;;;;;;;;;;6163116;23;20037;-95
2022/05/27 13:13:50;;;;;;;0.20;0.20;;;;;;;;;;6209442;22;20035;-95
2022/05/27 13:16:49;;;;;;;0.17;0.17;;;;;;;;;;6252775;23;20396;-95
2022/05/27 13:19:44;;;;;;;;;;;;;;;;;;;;;
2022/05/27 13:23:04;;;;;;;0.30;0.30;;;;;;;;;;6172284;23;20013;-96
2022/05/27 13:29:04;;;;;;;0.20;0.20;;;;;;;;;;6028682;23;20023;-96
2022/05/27 13:31:39;;;;;;;0.10;0.10;;;;;;;;;;6010753;23;20015;-95
2022/05/27 13:34:54;;;;;;;;;;;;;;;;;;;;;
2022/05/27 13:38:08;;;;;;;0.40;0.40;;;;;;;;;;5940872;24;20126;-96
2022/05/27 13:52:10;;;;;;;0.10;0.10;;;;;;;;;;6260391;22;20024;-96
2022/05/27 13:55:41;;;;;;;0.20;0.20;;;;;;;;;;6262262;23;20020;-96
2022/05/27 13:58:38;;;;;;;0.10;0.10;;;;;;;;;;6165210;23;20018;-96
2022/05/27 14:01:27;;;;;;;0.10;0.10;;;;;;;;;;6117657;23;20384;-96
2022/05/27 14:04:31;;;;;;;0.10;0.10;;;;;;;;;;6243955;22;20016;-96
2022/05/27 14:17:27;;;;;;;0.10;0.10;;;;;;;;;;6316862;22;20076;-96
2022/05/27 14:20:23;;;;;;;0.10;0.10;;;;;;;;;;6177155;23;20021;-95
2022/05/27 14:23:17;;;;;;;0.10;0.10;;;;;;;;;;6238118;22;20042;-95
2022/05/27 14:26:19;;;;;;;0.10;0.10;;;;;;;;;;6229044;23;20488;-96
2022/05/27 14:28:55;;;;;;;0.10;0.10;;;;;;;;;;6232203;23;20035;-96
2022/05/27 14:31:27;;;;;;;0.30;0.30;;;;;;;;;;6203093;23;20012;-96
2022/05/27 14:39:49;;;;;;;0.10;0.10;;;;;;;;;;6257826;22;20028;-95
2022/05/27 14:45:35;;;;;;;0.10;0.10;;;;;;;;;;6248489;22;20033;-94
2022/05/27 14:48:19;;;;;;;0.20;0.20;;;;;;;;;;6222019;23;20012;-94
2022/05/27 14:50:55;;;;;;;0.10;0.10;;;;;;;;;;6200456;23;20016;-95
2022/05/27 14:53:55;;;;;;;0.10;0.10;;;;;;;;;;6218506;22;20020;-96
2022/05/27 14:56:29;;;;;;;0.10;0.10;;;;;;;;;;6253937;22;20023;-94
2022/05/27 14:59:02;;;;;;;0.10;0.10;;;;;;;;;;6234034;22;20012;-92
2022/05/27 15:04:58;;;;;;;0.10;0.10;;;;;;;;;;6274864;22;20027;-91
2022/05/27 15:07:29;;;;;;;0.10;0.10;;;;;;;;;;6228729;22;20382;-91
2022/05/27 15:09:59;;;;;;;0.25;0.25;;;;;;;;;;6229718;22;20444;-92
2022/05/27 15:12:33;;;;;;;0.13;0.13;;;;;;;;;;6239059;22;20019;-91
2022/05/27 15:14:59;;;;;;;0.10;0.10;;;;;;;;;;6278610;22;20012;-91
2022/05/27 15:17:27;;;;;;;0.10;0.10;;;;;;;;;;6239304;22;20094;-92
2022/05/27 15:20:06;;;;;;;0.10;0.10;;;;;;;;;;6256943;22;20053;-89
2022/05/27 15:22:41;;;;;;;0.10;0.10;;;;;;;;;;6241512;22;20042;-92
2022/05/27 15:25:07;;;;;;;0.10;0.10;;;;;;;;;;6277540;22;20018;-91
2022/05/27 15:33:43;;;;;;;0.10;0.10;;;;;;;;;;6257483;22;20019;-90
2022/05/27 15:36:12;;;;;;;0.10;0.10;;;;;;;;;;6253691;22;20038;-93
2022/05/27 15:38:40;;;;;;;0.10;0.10;;;;;;;;;;6228751;22;20318;-92
2022/05/27 15:41:07;;;;;;;0.10;0.10;;;;;;;;;;6253971;22;20019;-90
2022/05/27 15:43:41;;;;;;;0.20;0.20;;;;;;;;;;6228484;22;20003;-90
2022/05/27 15:46:13;;;;;;;1.38;1.17;;;;;;;;;;6228573;22;20042;-89
2022/05/27 15:48:39;;;;;;;0.50;0.50;;;;;;;;;;6228430;22;20441;-89
2022/05/27 15:51:05;;;;;;;0.10;0.10;;;;;;;;;;6228501;22;20051;-90
2022/05/27 15:53:34;;;;;;;0.10;0.10;;;;;;;;;;6228674;22;20079;-94
2022/05/27 15:56:00;;;;;;;0.55;0.43;;;;;;;;;;6228582;22;20015;-90
2022/05/27 15:58:26;;;;;;;0.10;0.10;;;;;;;;;;6228116;22;20011;-90
2022/05/27 16:00:52;;;;;;;0.10;0.10;;;;;;;;;;6227973;22;20119;-89
2022/05/27 16:03:20;;;;;;;0.10;0.10;;;;;;;;;;6228188;22;20011;-89
2022/05/27 16:05:47;;;;;;;0.10;0.10;;;;;;;;;;6228517;22;20019;-90
2022/05/27 16:08:13;;;;;;;0.10;0.10;;;;;;;;;;6253550;22;20433;-91
2022/05/27 16:10:39;;;;;;;0.10;0.10;;;;;;;;;;6253417;22;20107;-89
2022/05/27 16:13:07;;;;;;;0.57;0.57;;;;;;;;;;6228390;22;20011;-91
2022/05/27 16:15:33;;;;;;;2.30;0.30;;;;;;;;;;6228708;22;20011;-91
2022/05/27 16:17:59;;;;;;;0.10;0.10;;;;;;;;;;6228498;22;20502;-92
2022/05/27 16:20:26;;;;;;;0.10;0.10;;;;;;;;;;6230816;22;20012;-93
2022/05/27 16:22:52;;;;;;;1.08;1.00;;;;;;;;;;6256220;22;20015;-93
2022/05/27 16:25:20;;;;;;;0.10;0.10;;;;;;;;;;6231306;22;20484;-92
2022/05/27 16:27:49;;;;;;;0.10;0.10;;;;;;;;;;6231298;22;20011;-95
2022/05/27 16:30:23;;;;;;;0.10;0.10;;;;;;;;;;6230979;22;20466;-95
2022/05/27 16:32:52;;;;;;;0.10;0.10;;;;;;;;;;6233281;22;20135;-94
2022/05/27 16:35:19;;;;;;;0.10;0.10;;;;;;;;;;6231105;22;20015;-93
2022/05/27 16:37:45;;;;;;;0.20;0.20;;;;;;;;;;6231990;22;20052;-94
2022/05/27 16:40:11;;;;;;;0.10;0.10;;;;;;;;;;6231368;22;20015;-93
2022/05/27 16:42:38;;;;;;;0.10;0.10;;;;;;;;;;6231240;22;20080;-93
2022/05/27 16:45:05;;;;;;;0.10;0.10;;;;;;;;;;6256272;22;20013;-94
2022/05/27 16:47:32;;;;;;;0.10;0.10;;;;;;;;;;6231108;22;20007;-93
2022/05/27 16:49:58;;;;;;;0.10;0.10;;;;;;;;;;6256074;22;20095;-93
2022/05/27 16:52:24;;;;;;;0.10;0.10;;;;;;;;;;6230477;22;20015;-94
2022/05/27 16:54:50;;;;;;;0.10;0.10;;;;;;;;;;6231385;22;20440;-94
2022/05/27 16:57:16;;;;;;;0.22;0.20;;;;;;;;;;6230306;22;20015;-95
2022/05/27 16:59:42;;;;;;;0.10;0.10;;;;;;;;;;6230806;22;20433;-96
2022/05/27 17:02:11;;;;;;;0.10;0.10;;;;;;;;;;6231219;22;20015;-94
2022/05/27 17:04:44;;;;;;;0.10;0.10;;;;;;;;;;6255837;22;20082;-92
2022/05/27 17:07:10;;;;;;;0.10;0.10;;;;;;;;;;6232006;22;20023;-94
2022/05/27 17:09:38;;;;;;;0.45;0.45;;;;;;;;;;6232164;22;20022;-96
2022/05/27 17:12:06;;;;;;;0.10;0.10;;;;;;;;;;6231424;22;20475;-95
2022/05/27 17:14:40;;;;;;;0.10;0.10;;;;;;;;;;6232927;22;20022;-96
2022/05/27 17:17:17;;;;;;;0.10;0.10;;;;;;;;;;6260458;22;20018;-96
2022/05/27 17:20:15;;;;;;;0.10;0.10;;;;;;;;;;6276174;22;20028;-95
2022/05/27 17:22:46;;;;;;;0.20;0.20;;;;;;;;;;6244281;22;20011;-95
2022/05/27 17:25:20;;;;;;;0.20;0.20;;;;;;;;;;6216091;22;20444;-94
2022/05/27 17:28:03;;;;;;;0.10;0.10;;;;;;;;;;6272101;22;20022;-96
2022/05/27 17:30:35;;;;;;;0.30;0.30;;;;;;;;;;6272933;22;20023;-94
2022/05/27 17:33:27;;;;;;;0.10;0.10;;;;;;;;;;6298369;22;20062;-96
2022/05/27 17:35:54;;;;;;;0.40;0.40;;;;;;;;;;6261663;22;20340;-92
2022/05/27 17:38:24;;;;;;;0.10;0.10;;;;;;;;;;6236707;22;20016;-95
2022/05/27 17:44:26;;;;;;;0.10;0.10;;;;;;;;;;6312296;22;20033;-93
2022/05/27 17:52:54;;;;;;;0.17;0.17;;;;;;;;;;6289325;22;20336;-96
2022/05/27 17:55:23;;;;;;;0.10;0.10;;;;;;;;;;6273132;22;20018;-93
2022/05/27 17:57:53;;;;;;;0.20;0.20;;;;;;;;;;6243967;22;20033;-94
2022/05/27 18:07:54;;;;;;;0.10;0.10;;;;;;;;;;6310958;22;20097;-94
2022/05/27 18:10:26;;;;;;;0.10;0.10;;;;;;;;;;6263964;22;20328;-95
2022/05/27 18:16:44;;;;;;;0.10;0.10;;;;;;;;;;6293108;22;20034;-96
2022/05/27 18:24:51;;;;;;;0.10;0.10;;;;;;;;;;6304965;22;20080;-94
2022/05/27 18:27:20;;;;;;;0.10;0.10;;;;;;;;;;6259318;22;20022;-91
2022/05/27 18:29:50;;;;;;;0.10;0.10;;;;;;;;;;6256653;22;20011;-96
2022/05/27 18:32:25;;;;;;;0.10;0.10;;;;;;;;;;6257272;22;20064;-94
2022/05/27 18:35:02;;;;;;;0.10;0.10;;;;;;;;;;6258551;22;20015;-95